Bridgeport, CT (06605)

2:08 AM EDT on March 28, 2015 (GMT -0400)
South Benson Marina | | Change Station
CLOSE
Current Station
Personal Weather Station
Location: Fairfield, CT
Elevation: 20 ft
Nearby Weather Stations

Elev 20 ft 41.14 °N, 73.24 °W | Updated 12 minutes ago

Overcast
Overcast
37.5 °F
Feels Like 33 °F
N
6.0
Wind Variable Wind from East
Gusts 15.0 mph

Today
High -- | Low -- °F
--% Chance of Precip.
Yesterday
High -- | Low -- °F
Precip. -- in
6:43 AM 7:13 PM
First Quarter, 59% visible
Pressure 29.77 in
Visibility 10.0 miles
Clouds Few 4900 ft
Overcast 6000 ft
Windchill 33 °F
Dew Point 26 °F
Humidity 63%
Rainfall 0.00 in
Snow Depth Not available.
UV 0 out of 12
Pollen 3.40 out of 12
Air Quality Not available.
Flu Activity Not available.
METAR KBDR 280552Z AUTO 33009KT 10SM FEW049 OVC060 04/M04 A2977 RMK AO2 SLP079 T00391039 10067 20039 58006

More Conditions Fewer Conditions

Pressure 29.77 in
Visibility 10.0 miles
Clouds Few 4900 ft
Overcast 6000 ft
Windchill 33 °F
Dew Point 26 °F
Humidity 63%
Rainfall 0.00 in
Snow Depth Not available.
UV 0 out of 12
Pollen 3.40 out of 12
Air Quality Not available.
Flu Activity Not available.
METAR KBDR 280552Z AUTO 33009KT 10SM FEW049 OVC060 04/M04 A2977 RMK AO2 SLP079 T00391039 10067 20039 58006

More Conditions Fewer Conditions

10-Day Weather Forecast

Almanac

Astronomy

Mar. 28, 2015 Rise Set
Actual Time
Civil Twilight
Nautical Twilight
Astronomical Twilight
Moon
Length of Visible Light
Length of Day
Tomorrow will be .
, % of the Moon is Illuminated

Today's Extremes

State Highs State Lows

Community

WunderPhotos

Upload Photos

1,808,937 photos uploaded!

WunderBlogs® & News

Nearby

Air Quality

  Air Quality AQ Index Pollutant
Not available.

Snow Depth

Station Depth Elevation

Earthquake Activity

City Distance Mag. Time & Date
Minimum magnitude displayed is 2.5.

Coastal Water Temperatures

Place Temperature

Stations

Nearby Weather Stations

Station Location Temp. Windchill Dew Point Humidity Wind Precip. Elev Updated Type